KQND

Camp Nothing Hil

Camp Nothing Hil,
METAR KQND 240756Z AUTO VRB04G15KT 9999 CLR 34/22 A2985 RMK AO2 SLPNO WND DATA ESTMD T03360217
Observed Flight Rules
May-24 @ 07:56 UTC (14 minutes ago) Visual Flight Rules
Wind Visibility Clouds
Variable at 4 knots
 Gusting to 15 knots
10,000+ meters
  • Clear skies
Temperatures Readings
Current 34°C / 93°F
Dewpoint 22°C / 72°F
Humidity 49%
Altimeter 29.85" Hg
Pressure 1011 hPa
METAR KQND 240756Z AUTO VRB04G15KT 9999 CLR 34/22 A2985 RMK AO2 SLPNO WND DATA ESTMD T03360217
Observed Flight Rules
May-24 @ 07:56 UTC
(14 minutes ago)
VFR
Wind Visibility
Variable at 4 knots
 Gusting to 15 knots
10,000+ meters
Clouds
  • Clear skies
Temperature Dewpoint
34°C / 93°F 22°C / 72°F
Humidity Altimeter Pressure
49% 29.85" Hg 1011 hPa